Time;durP1;ratioP1;P1;durP2;ratioP2;P2;SDS_P1;SDS_P2;PMS_P1;PMS_P2;Temp;Humidity;BMP_temperature;BMP_pressure;BME280_temperature;BME280_humidity;BME280_pressure;Samples;Min_cycle;Max_cycle;Signal;HPM_P1;HPM_P2
2022/07/01 00:01:34;;;;;;;16.67;7.57;;;;;;;19.91;100.00;97324.06;5010501;28;20030;-76
2022/07/01 00:03:59;;;;;;;17.95;7.35;;;;;;;19.88;100.00;97318.09;5008799;28;20117;-76
2022/07/01 00:06:25;;;;;;;15.55;7.10;;;;;;;19.77;100.00;97327.38;5006778;28;20026;-76
2022/07/01 00:08:51;;;;;;;16.25;6.70;;;;;;;19.69;100.00;97308.28;5023706;28;20069;-75
2022/07/01 00:11:16;;;;;;;17.95;7.07;;;;;;;19.68;100.00;97322.03;5006774;28;20489;-75
2022/07/01 00:13:42;;;;;;;12.80;7.63;;;;;;;19.60;100.00;97305.66;5002880;28;20061;-75
2022/07/01 00:16:08;;;;;;;12.07;7.00;;;;;;;19.60;100.00;97317.38;5009518;28;20112;-76
2022/07/01 00:18:33;;;;;;;15.73;7.13;;;;;;;19.59;100.00;97318.38;5004950;28;20042;-76
2022/07/01 00:21:00;;;;;;;11.00;7.35;;;;;;;19.51;100.00;97326.44;4990478;28;20126;-76
2022/07/01 00:23:27;;;;;;;12.48;7.25;;;;;;;19.54;100.00;97328.84;4989653;28;20031;-76
2022/07/01 00:25:53;;;;;;;15.23;7.82;;;;;;;19.48;100.00;97326.75;5007160;28;20485;-76
2022/07/01 00:28:19;;;;;;;12.23;6.82;;;;;;;19.54;100.00;97344.25;5028218;28;20044;-76
2022/07/01 00:30:44;;;;;;;13.93;7.28;;;;;;;19.47;100.00;97341.34;5030249;28;20030;-76
2022/07/01 00:33:10;;;;;;;11.88;7.32;;;;;;;19.42;100.00;97333.66;5013119;28;20045;-76
2022/07/01 00:35:35;;;;;;;9.95;7.35;;;;;;;19.53;100.00;97327.16;5010541;28;20041;-76
2022/07/01 00:38:01;;;;;;;12.18;7.47;;;;;;;19.61;100.00;97327.22;5028062;28;20042;-76
2022/07/01 00:40:27;;;;;;;15.00;7.43;;;;;;;19.56;100.00;97324.13;4993925;28;20552;-76
2022/07/01 00:42:53;;;;;;;13.10;7.63;;;;;;;19.60;100.00;97330.06;5007434;28;20100;-77
2022/07/01 00:45:18;;;;;;;14.13;7.57;;;;;;;19.59;100.00;97323.81;5029907;28;20057;-76
2022/07/01 00:47:44;;;;;;;13.27;7.60;;;;;;;19.54;100.00;97315.28;5013538;28;20030;-77
2022/07/01 00:50:15;;;;;;;11.32;7.40;;;;;;;19.54;100.00;97320.69;5029676;28;20026;-77
2022/07/01 00:52:42;;;;;;;13.88;7.13;;;;;;;19.56;100.00;97318.72;5013208;28;20048;-77
2022/07/01 00:55:09;;;;;;;13.55;8.18;;;;;;;19.57;100.00;97317.69;5012905;28;20034;-77
2022/07/01 00:57:36;;;;;;;15.65;6.97;;;;;;;19.58;100.00;97321.25;5013203;28;20037;-77
2022/07/01 01:00:14;;;;;;;11.73;7.03;;;;;;;19.53;100.00;97316.31;4999648;28;20544;-77
2022/07/01 01:02:40;;;;;;;11.73;6.68;;;;;;;19.56;100.00;97336.84;5013196;28;20022;-77
2022/07/01 01:05:07;;;;;;;11.98;6.68;;;;;;;19.50;100.00;97319.34;5000777;28;20038;-77
2022/07/01 01:07:34;;;;;;;14.77;8.48;;;;;;;19.52;100.00;97333.59;5029412;28;20104;-76
2022/07/01 01:10:01;;;;;;;17.40;9.23;;;;;;;19.44;100.00;97330.81;5006679;28;20022;-76
2022/07/01 01:12:28;;;;;;;14.40;8.63;;;;;;;19.33;100.00;97321.00;5012449;28;20088;-76
2022/07/01 01:14:54;;;;;;;17.27;8.60;;;;;;;19.37;100.00;97330.53;5029034;28;20022;-76
2022/07/01 01:17:23;;;;;;;12.57;7.85;;;;;;;19.22;100.00;97317.66;5000198;28;20064;-76
2022/07/01 01:19:50;;;;;;;11.15;7.10;;;;;;;19.19;100.00;97321.53;5028596;28;20048;-77
2022/07/01 01:22:17;;;;;;;15.88;7.60;;;;;;;19.24;100.00;97331.91;5012664;28;20030;-75
2022/07/01 01:24:44;;;;;;;13.13;6.97;;;;;;;19.19;100.00;97335.09;4996311;28;20034;-76
2022/07/01 01:27:10;;;;;;;16.88;7.38;;;;;;;19.19;100.00;97318.84;4996347;28;20026;-76
2022/07/01 01:29:36;;;;;;;17.75;7.90;;;;;;;19.23;100.00;97339.19;5000180;28;20025;-75
2022/07/01 01:32:06;;;;;;;11.82;8.30;;;;;;;19.11;100.00;97328.72;5034896;28;20049;-75
2022/07/01 01:34:33;;;;;;;13.05;7.50;;;;;;;18.98;100.00;97339.09;5015476;28;20095;-75
2022/07/01 01:36:58;;;;;;;9.32;7.18;;;;;;;19.02;100.00;97335.06;5029441;28;20022;-76
2022/07/01 01:39:24;;;;;;;14.77;7.38;;;;;;;18.98;100.00;97345.34;5031046;28;20036;-76
2022/07/01 01:41:50;;;;;;;11.73;7.43;;;;;;;18.94;100.00;97344.81;5028755;28;20133;-76
2022/07/01 01:44:15;;;;;;;14.93;7.82;;;;;;;19.03;100.00;97348.47;4999170;28;20056;-76
2022/07/01 01:46:41;;;;;;;14.57;7.75;;;;;;;18.98;100.00;97347.22;5033763;28;20025;-76
2022/07/01 01:49:07;;;;;;;11.48;6.80;;;;;;;18.99;100.00;97348.91;5034511;28;20101;-76
2022/07/01 01:51:33;;;;;;;12.30;7.97;;;;;;;18.92;100.00;97344.09;5015184;28;20033;-76
2022/07/01 01:53:59;;;;;;;14.95;7.53;;;;;;;18.92;100.00;97346.81;5012416;28;20037;-76
2022/07/01 01:56:26;;;;;;;13.05;7.00;;;;;;;18.86;100.00;97347.41;5035947;28;20084;-77
2022/07/01 01:58:51;;;;;;;18.08;8.13;;;;;;;18.92;100.00;97352.22;5011167;28;20931;-76
2022/07/01 02:01:18;;;;;;;14.95;7.35;;;;;;;18.87;100.00;97353.69;5001600;28;20041;-78
2022/07/01 02:03:45;;;;;;;17.90;7.63;;;;;;;18.71;100.00;97348.06;5015028;28;20037;-77
2022/07/01 02:06:11;;;;;;;19.77;7.15;;;;;;;18.69;100.00;97360.94;5031550;28;20025;-77
2022/07/01 02:08:37;;;;;;;16.13;7.90;;;;;;;18.50;100.00;97353.72;5014872;28;20033;-77
2022/07/01 02:11:04;;;;;;;17.58;6.82;;;;;;;18.42;100.00;97353.59;5014884;28;20029;-77
2022/07/01 02:13:29;;;;;;;16.23;7.38;;;;;;;18.43;100.00;97360.69;5012143;28;20056;-74
2022/07/01 02:15:56;;;;;;;18.55;7.97;;;;;;;18.37;100.00;97369.41;5024103;28;20477;-75
2022/07/01 02:18:22;;;;;;;19.58;8.35;;;;;;;18.38;100.00;97357.59;5031087;28;20037;-75
2022/07/01 02:20:47;;;;;;;15.38;7.55;;;;;;;18.36;100.00;97365.03;5014823;28;20037;-77
2022/07/01 02:23:13;;;;;;;14.13;8.02;;;;;;;18.40;100.00;97372.69;5031505;28;20464;-76
2022/07/01 02:25:38;;;;;;;17.30;7.38;;;;;;;18.38;100.00;97379.25;5014529;28;20346;-76
2022/07/01 02:28:04;;;;;;;14.38;7.75;;;;;;;18.34;100.00;97377.84;5015302;28;20021;-76
2022/07/01 02:30:36;;;;;;;16.05;7.60;;;;;;;18.41;100.00;97369.00;5031017;28;20112;-76
2022/07/01 02:33:07;;;;;;;13.45;7.68;;;;;;;18.36;100.00;97373.16;5015552;28;20045;-76
2022/07/01 02:35:34;;;;;;;19.30;7.97;;;;;;;18.34;100.00;97383.25;5031195;28;20424;-76
2022/07/01 02:38:00;;;;;;;22.70;7.53;;;;;;;18.29;100.00;97374.72;5023032;28;20468;-75
2022/07/01 02:40:26;;;;;;;13.63;7.45;;;;;;;18.36;100.00;97375.84;5014533;28;20136;-76
2022/07/01 02:42:52;;;;;;;14.55;8.65;;;;;;;18.36;100.00;97392.09;5030795;28;20109;-75
2022/07/01 02:45:17;;;;;;;17.17;8.07;;;;;;;18.29;100.00;97378.28;5014399;28;20029;-76
2022/07/01 02:47:44;;;;;;;16.88;7.78;;;;;;;18.33;100.00;97397.81;5014154;28;20117;-76
2022/07/01 02:50:11;;;;;;;11.02;8.20;;;;;;;18.38;100.00;97395.50;5014726;28;20033;-75
2022/07/01 02:52:39;;;;;;;17.83;8.07;;;;;;;18.27;100.00;97384.88;5012101;28;20038;-76
2022/07/01 02:55:06;;;;;;;27.10;9.32;;;;;;;18.35;100.00;97390.38;5031124;28;20552;-76
2022/07/01 02:57:32;;;;;;;17.75;8.32;;;;;;;18.39;100.00;97397.22;5030175;28;20052;-76
2022/07/01 02:59:57;;;;;;;13.15;8.43;;;;;;;18.36;100.00;97403.78;5004485;28;20029;-76
2022/07/01 03:02:23;;;;;;;11.75;7.80;;;;;;;18.38;100.00;97406.34;5014030;28;20029;-76
2022/07/01 03:04:50;;;;;;;18.48;8.23;;;;;;;18.41;100.00;97414.19;5030178;28;20080;-76
2022/07/01 03:07:16;;;;;;;15.38;8.20;;;;;;;18.43;100.00;97409.47;5014179;28;20025;-76
2022/07/01 03:09:43;;;;;;;15.50;8.13;;;;;;;18.40;100.00;97404.34;5014045;28;20087;-77
2022/07/01 03:12:45;;;;;;;13.48;8.15;;;;;;;18.38;100.00;97398.22;5013840;28;20025;-76
2022/07/01 03:15:12;;;;;;;22.88;7.95;;;;;;;18.51;100.00;97411.47;5027518;28;20068;-77
2022/07/01 03:17:40;;;;;;;17.30;8.20;;;;;;;18.47;100.00;97424.44;4997344;28;20112;-76
2022/07/01 03:20:09;;;;;;;16.85;8.40;;;;;;;18.52;100.00;97421.31;5017300;28;20032;-76
2022/07/01 03:22:35;;;;;;;13.27;8.32;;;;;;;18.60;100.00;97426.84;5029865;28;20511;-76
2022/07/01 03:25:03;;;;;;;16.80;9.27;;;;;;;18.68;100.00;97432.38;4997314;28;20017;-76
2022/07/01 03:27:28;;;;;;;29.20;9.65;;;;;;;18.69;100.00;97426.81;4999701;28;20418;-76
2022/07/01 03:29:54;;;;;;;32.72;13.45;;;;;;;18.73;100.00;97422.81;5030231;28;20060;-76
2022/07/01 03:32:20;;;;;;;40.80;18.48;;;;;;;18.78;100.00;97425.94;5026600;28;20474;-76
2022/07/01 03:34:48;;;;;;;21.45;10.15;;;;;;;18.84;100.00;97419.91;5026602;28;20034;-76
2022/07/01 03:37:14;;;;;;;37.35;14.63;;;;;;;18.81;100.00;97416.63;5010000;28;20022;-75
2022/07/01 03:39:40;;;;;;;22.73;11.35;;;;;;;18.78;100.00;97419.66;5011258;28;20025;-75
2022/07/01 03:42:07;;;;;;;20.00;10.07;;;;;;;18.80;100.00;97417.63;5010236;28;20077;-76
2022/07/01 03:44:33;;;;;;;20.25;8.30;;;;;;;18.87;100.00;97419.59;5009757;28;20195;-79
2022/07/01 03:46:59;;;;;;;16.63;8.65;;;;;;;18.92;100.00;97416.44;4994069;28;20511;-77
2022/07/01 03:49:25;;;;;;;13.75;8.55;;;;;;;18.87;100.00;97419.59;4990802;28;20066;-79
2022/07/01 03:51:51;;;;;;;25.35;8.68;;;;;;;18.88;100.00;97412.34;4992950;28;20040;-77
2022/07/01 03:54:29;;;;;;;14.30;7.93;;;;;;;18.91;100.00;97409.31;4993824;28;20018;-77
2022/07/01 03:57:15;;;;;;;27.15;9.93;;;;;;;19.05;100.00;97425.09;5009828;28;20496;-77
2022/07/01 03:59:41;;;;;;;19.67;8.70;;;;;;;19.10;100.00;97427.34;5007728;28;20489;-77
2022/07/01 04:02:07;;;;;;;13.85;8.45;;;;;;;19.28;100.00;97428.25;5010494;28;20017;-75
2022/07/01 04:04:33;;;;;;;18.25;8.20;;;;;;;19.25;100.00;97423.13;5016662;28;20029;-77
2022/07/01 04:07:02;;;;;;;21.77;8.30;;;;;;;19.38;100.00;97429.88;5032847;28;20022;-78
2022/07/01 04:09:28;;;;;;;17.45;8.18;;;;;;;19.25;100.00;97423.13;5016621;28;20033;-77
2022/07/01 04:11:54;;;;;;;11.77;7.80;;;;;;;19.24;100.00;97432.25;5032755;28;20032;-77
2022/07/01 04:14:20;;;;;;;11.43;8.10;;;;;;;19.12;100.00;97428.91;5000203;28;20025;-77
2022/07/01 04:16:46;;;;;;;15.63;9.65;;;;;;;19.17;100.00;97434.72;5016244;28;20037;-75
2022/07/01 04:19:13;;;;;;;16.38;8.95;;;;;;;19.27;100.00;97449.09;5032813;28;20096;-75
2022/07/01 04:24:24;;;;;;;15.63;8.50;;;;;;;19.11;100.00;97445.31;5017058;28;20032;-77
2022/07/01 04:26:50;;;;;;;20.10;9.20;;;;;;;19.15;100.00;97449.44;5016376;28;20010;-77
2022/07/01 04:29:16;;;;;;;15.25;7.88;;;;;;;19.30;100.00;97446.06;5016313;28;20096;-77
2022/07/01 04:31:41;;;;;;;14.00;8.18;;;;;;;19.36;100.00;97437.34;4992198;28;20050;-76
2022/07/01 04:34:08;;;;;;;12.55;8.43;;;;;;;19.35;100.00;97438.31;5030713;28;20113;-77
2022/07/01 04:36:34;;;;;;;18.92;9.25;;;;;;;19.51;100.00;97439.53;5032699;28;20061;-77
2022/07/01 04:39:03;;;;;;;15.30;8.15;;;;;;;19.57;100.00;97438.94;5016161;28;20050;-76
2022/07/01 04:44:13;;;;;;;16.02;8.43;;;;;;;19.88;100.00;97443.84;5013309;28;20044;-76
2022/07/01 04:46:39;;;;;;;19.83;8.95;;;;;;;19.98;100.00;97443.78;4994550;28;20029;-76
2022/07/01 04:49:05;;;;;;;13.30;8.18;;;;;;;20.02;100.00;97440.59;4999461;28;20113;-76
2022/07/01 04:51:30;;;;;;;17.15;11.85;;;;;;;20.07;100.00;97441.97;5012732;28;20476;-76
2022/07/01 04:53:56;;;;;;;17.85;9.70;;;;;;;21.40;100.00;97427.91;5029355;28;20036;-76
2022/07/01 04:56:22;;;;;;;14.35;9.65;;;;;;;22.83;100.00;97432.78;5014716;28;20113;-76
2022/07/01 04:58:48;;;;;;;19.73;9.50;;;;;;;23.71;99.05;97439.81;5015804;28;20036;-75
2022/07/01 05:01:14;;;;;;;13.85;8.95;;;;;;;24.65;90.57;97435.88;5015712;28;20080;-76
2022/07/01 05:03:39;;;;;;;14.57;8.07;;;;;;;26.08;81.32;97441.69;5009198;28;20038;-75
2022/07/01 05:06:05;;;;;;;13.43;7.95;;;;;;;27.59;72.65;97448.47;4997198;28;20113;-74
2022/07/01 05:08:31;;;;;;;11.57;6.65;;;;;;;28.73;65.79;97431.00;5015737;28;20061;-76
2022/07/01 05:10:56;;;;;;;13.18;7.88;;;;;;;29.50;61.66;97439.41;5004297;28;20121;-78
2022/07/01 05:13:23;;;;;;;25.73;9.15;;;;;;;30.57;58.23;97425.75;5031726;28;20030;-74
2022/07/01 05:15:48;;;;;;;24.80;14.73;;;;;;;31.82;53.73;97435.63;5028399;28;20032;-77
2022/07/01 05:23:42;;;;;;;12.50;8.15;;;;;;;31.58;52.91;97451.22;5026867;28;20105;-75
2022/07/01 05:26:07;;;;;;;17.75;10.40;;;;;;;30.20;55.43;97456.97;5006723;28;20414;-76
2022/07/01 05:28:33;;;;;;;18.77;8.88;;;;;;;31.22;54.37;97448.41;5004739;28;20033;-76
2022/07/01 05:30:59;;;;;;;25.88;8.02;;;;;;;32.46;51.36;97440.50;5001047;28;20026;-74
2022/07/01 05:33:26;;;;;;;11.32;7.28;;;;;;;31.21;53.31;97451.38;5035844;28;20030;-75
2022/07/01 05:35:52;;;;;;;22.35;11.88;;;;;;;30.37;56.00;97454.53;5028707;28;20033;-75
2022/07/01 05:38:18;;;;;;;38.53;25.67;;;;;;;31.46;54.26;97461.34;5028496;28;20026;-75
2022/07/01 05:40:44;;;;;;;13.63;7.13;;;;;;;32.02;52.03;97450.06;5015764;28;20040;-75
2022/07/01 05:43:09;;;;;;;24.08;8.73;;;;;;;33.34;49.21;97450.84;5031380;28;20095;-76
2022/07/01 05:45:35;;;;;;;17.48;7.10;;;;;;;33.35;47.96;97447.00;5030118;28;20065;-76
2022/07/01 05:48:00;;;;;;;19.98;7.43;;;;;;;33.58;46.71;97442.28;5012588;28;20034;-77
2022/07/01 05:50:26;;;;;;;10.15;6.68;;;;;;;34.23;46.38;97445.66;5039606;28;20044;-77
2022/07/01 05:52:51;;;;;;;10.50;8.00;;;;;;;34.93;44.34;97444.47;5015560;28;20037;-77
2022/07/01 05:55:17;;;;;;;16.73;6.65;;;;;;;32.40;47.99;97455.31;5015227;28;20123;-77
2022/07/01 05:57:42;;;;;;;13.20;7.13;;;;;;;31.55;50.36;97468.28;5036892;28;20409;-76
2022/07/01 06:00:11;;;;;;;9.90;7.88;;;;;;;32.25;49.66;97471.50;5012076;28;20110;-76
2022/07/01 06:02:37;;;;;;;14.40;7.28;;;;;;;32.06;49.46;97465.13;5014676;28;20032;-76
2022/07/01 06:05:03;;;;;;;14.65;7.38;;;;;;;32.46;48.92;97462.66;5031790;28;20400;-77
2022/07/01 06:07:29;;;;;;;13.60;9.05;;;;;;;33.68;46.42;97453.63;5031444;28;20026;-77
2022/07/01 06:09:57;;;;;;;15.05;7.03;;;;;;;34.69;44.49;97450.19;5033151;28;20040;-76
2022/07/01 06:12:23;;;;;;;11.75;6.78;;;;;;;34.26;44.78;97452.66;5031458;28;20038;-78
2022/07/01 06:14:49;;;;;;;14.57;7.55;;;;;;;34.73;43.83;97442.19;5031442;28;20023;-78
2022/07/01 06:17:15;;;;;;;13.18;7.70;;;;;;;36.42;41.19;97443.38;5014716;28;20045;-78
2022/07/01 06:19:40;;;;;;;9.63;6.30;;;;;;;34.51;42.95;97447.59;5014892;28;20584;-78
2022/07/01 06:22:06;;;;;;;8.73;6.45;;;;;;;34.47;44.53;97454.75;5031178;28;20116;-78
2022/07/01 06:24:32;;;;;;;9.85;7.30;;;;;;;35.21;43.00;97444.44;5031123;28;20503;-79
2022/07/01 06:26:58;;;;;;;24.92;12.32;;;;;;;35.37;42.48;97435.22;5014445;28;20027;-79
2022/07/01 06:29:23;;;;;;;11.23;6.47;;;;;;;36.21;41.48;97438.66;5014987;28;20029;-80
2022/07/01 06:31:49;;;;;;;10.15;8.23;;;;;;;33.82;44.41;97442.25;5014659;28;20120;-80
2022/07/01 06:34:15;;;;;;;26.13;15.38;;;;;;;34.71;43.09;97438.81;5031563;28;20053;-79
2022/07/01 06:36:40;;;;;;;10.35;8.13;;;;;;;33.76;45.40;97452.41;5007837;28;20392;-78
2022/07/01 06:39:06;;;;;;;15.77;7.28;;;;;;;34.43;44.73;97447.97;5032872;28;20055;-79
2022/07/01 06:41:32;;;;;;;13.57;9.07;;;;;;;34.77;43.83;97441.44;5012491;28;20030;-79
2022/07/01 06:44:02;;;;;;;15.05;8.13;;;;;;;32.29;48.11;97456.13;5037584;28;20030;-76
2022/07/01 06:46:29;;;;;;;48.35;9.82;;;;;;;32.38;48.55;97459.38;5012907;28;20053;-79
2022/07/01 06:48:55;;;;;;;24.05;12.25;;;;;;;32.95;47.29;97452.38;5033751;28;20033;-78
2022/07/01 06:51:21;;;;;;;13.98;6.45;;;;;;;34.37;44.82;97440.66;5014390;28;20044;-77
2022/07/01 06:53:49;;;;;;;16.75;6.32;;;;;;;33.69;45.33;97438.66;5013236;28;20477;-77
2022/07/01 06:56:16;;;;;;;10.52;6.43;;;;;;;34.22;44.59;97423.69;5042892;28;20033;-75
2022/07/01 06:58:42;;;;;;;14.75;10.52;;;;;;;33.55;45.71;97431.66;5010944;28;20193;-77
2022/07/01 07:01:07;;;;;;;16.88;6.85;;;;;;;34.78;43.93;97429.22;5022174;28;20113;-77
2022/07/01 07:03:33;;;;;;;15.23;7.38;;;;;;;36.65;40.63;97420.78;5010573;28;20088;-76
2022/07/01 07:06:02;;;;;;;20.50;7.75;;;;;;;37.42;38.88;97417.53;5030500;28;20037;-77
2022/07/01 07:08:29;;;;;;;15.68;6.97;;;;;;;39.29;36.04;97409.81;5000369;28;20474;-78
2022/07/01 07:10:54;;;;;;;17.20;6.30;;;;;;;38.32;36.88;97413.56;5014237;28;20107;-77
2022/07/01 07:13:24;;;;;;;14.75;7.90;;;;;;;36.08;39.99;97414.84;5026314;28;20496;-77
2022/07/01 07:15:49;;;;;;;15.60;7.32;;;;;;;35.33;41.82;97423.75;5013933;28;20044;-77
2022/07/01 07:18:15;;;;;;;16.60;10.15;;;;;;;36.23;40.69;97423.38;5014066;28;20404;-79
2022/07/01 07:20:41;;;;;;;21.48;6.15;;;;;;;35.65;41.48;97421.22;5012461;28;20030;-79
2022/07/01 07:23:06;;;;;;;14.85;7.43;;;;;;;34.63;43.58;97431.75;5038624;28;20034;-78
2022/07/01 07:25:32;;;;;;;13.90;6.60;;;;;;;34.50;43.43;97423.69;5038326;28;20033;-77
2022/07/01 07:27:57;;;;;;;22.13;7.03;;;;;;;35.57;41.26;97426.31;5041125;28;20029;-78
2022/07/01 07:30:23;;;;;;;15.05;5.68;;;;;;;37.06;38.69;97424.81;5013692;28;20029;-77
2022/07/01 07:32:49;;;;;;;12.05;5.65;;;;;;;38.53;36.30;97411.69;5035331;28;20096;-78
2022/07/01 07:35:14;;;;;;;20.90;9.32;;;;;;;40.18;33.87;97418.31;5041271;28;20037;-77
2022/07/01 07:37:41;;;;;;;15.40;6.55;;;;;;;40.62;33.27;97414.72;5011023;28;20104;-78
2022/07/01 07:40:09;;;;;;;18.30;7.63;;;;;;;41.21;32.48;97408.97;5040760;28;20399;-77
2022/07/01 07:42:39;;;;;;;15.30;6.85;;;;;;;39.04;34.04;97397.47;5013598;28;20033;-77
2022/07/01 07:45:06;;;;;;;17.50;7.90;;;;;;;37.86;35.97;97418.09;5011230;28;20026;-77
2022/07/01 07:47:33;;;;;;;10.30;6.38;;;;;;;36.29;38.13;97421.47;5037612;28;20025;-77
2022/07/01 07:49:58;;;;;;;17.27;5.80;;;;;;;36.51;38.53;97427.84;5027488;28;20088;-77
2022/07/01 07:52:24;;;;;;;25.75;6.63;;;;;;;38.17;36.06;97419.09;5039586;28;20531;-77
2022/07/01 07:54:50;;;;;;;9.30;5.50;;;;;;;38.80;35.08;97415.94;5012530;28;20044;-77
2022/07/01 07:57:18;;;;;;;11.40;5.88;;;;;;;40.57;32.81;97401.59;5012876;28;20067;-78
2022/07/01 07:59:44;;;;;;;16.50;5.60;;;;;;;38.40;34.19;97399.06;4995251;28;20044;-78
2022/07/01 08:02:09;;;;;;;8.80;5.40;;;;;;;38.33;34.95;97401.28;4995498;28;20037;-78
2022/07/01 08:04:35;;;;;;;16.35;6.30;;;;;;;40.31;32.42;97405.63;5009684;28;20037;-78
2022/07/01 08:07:00;;;;;;;13.73;6.60;;;;;;;41.55;30.71;97405.03;5043540;28;20026;-80
2022/07/01 08:09:26;;;;;;;10.50;5.70;;;;;;;43.34;28.93;97403.16;5037921;28;20033;-78
2022/07/01 08:11:52;;;;;;;9.23;5.38;;;;;;;40.92;31.11;97400.47;5038593;28;20034;-79
2022/07/01 08:14:18;;;;;;;7.32;5.20;;;;;;;40.58;31.84;97403.25;5034506;28;20037;-78
2022/07/01 08:16:43;;;;;;;5.90;5.30;;;;;;;41.07;31.52;97404.03;5042823;28;20040;-77
2022/07/01 08:19:09;;;;;;;18.92;6.00;;;;;;;42.53;30.49;97400.75;5013158;28;20033;-79
2022/07/01 08:21:35;;;;;;;19.20;4.95;;;;;;;40.44;31.12;97396.59;5035707;28;20028;-78
2022/07/01 08:24:00;;;;;;;6.20;4.75;;;;;;;41.27;31.11;97393.75;5042313;28;20092;-78
2022/07/01 08:26:26;;;;;;;6.22;4.80;;;;;;;39.95;31.36;97393.72;5045806;28;20029;-76
2022/07/01 08:28:51;;;;;;;12.15;4.80;;;;;;;40.44;30.82;97391.81;5012935;28;20500;-77
2022/07/01 08:31:17;;;;;;;9.98;4.70;;;;;;;41.49;29.21;97386.53;5027858;28;20513;-78
2022/07/01 08:33:42;;;;;;;9.50;5.00;;;;;;;41.21;29.74;97384.53;5029475;28;20034;-77
2022/07/01 08:36:09;;;;;;;8.98;4.65;;;;;;;39.94;30.44;97384.47;5040786;28;20497;-78
2022/07/01 08:38:35;;;;;;;6.43;4.22;;;;;;;40.86;28.84;97374.41;5013139;28;20420;-79
2022/07/01 08:41:02;;;;;;;12.43;5.13;;;;;;;41.52;29.69;97385.09;5012059;28;20026;-78
2022/07/01 08:43:28;;;;;;;4.95;4.45;;;;;;;41.54;28.91;97378.06;4993081;28;20401;-79
2022/07/01 08:45:54;;;;;;;7.18;5.13;;;;;;;42.23;29.72;97389.94;4993219;28;20126;-79
2022/07/01 08:48:20;;;;;;;6.53;4.80;;;;;;;43.16;28.12;97387.97;5013098;28;20064;-78
2022/07/01 08:50:46;;;;;;;7.53;4.78;;;;;;;44.86;25.53;97381.13;5013375;28;20034;-79
2022/07/01 08:53:13;;;;;;;5.82;4.70;;;;;;;44.52;25.98;97380.78;5016479;28;20100;-79
2022/07/01 08:58:25;;;;;;;18.45;4.90;;;;;;;41.45;30.49;97379.84;5018700;28;20040;-78
2022/07/01 09:00:51;;;;;;;7.57;5.05;;;;;;;39.80;31.29;97379.78;5013391;28;20133;-79
2022/07/01 09:03:23;;;;;;;4.85;4.40;;;;;;;40.02;31.71;97375.44;5035078;28;20014;-78
2022/07/01 09:05:54;;;;;;;9.27;4.43;;;;;;;40.97;29.50;97362.03;5037384;28;20132;-79
2022/07/01 09:08:20;;;;;;;8.13;4.90;;;;;;;40.76;29.65;97368.91;5016596;28;20025;-79
2022/07/01 09:10:45;;;;;;;13.65;4.68;;;;;;;40.45;30.99;97378.63;5016211;28;20032;-79
2022/07/01 09:13:13;;;;;;;10.00;4.10;;;;;;;41.31;28.44;97367.59;5015715;28;20457;-78
2022/07/01 09:15:40;;;;;;;9.55;4.28;;;;;;;41.47;28.67;97365.50;5016221;28;20033;-78
2022/07/01 09:18:17;;;;;;;7.15;4.28;;;;;;;40.45;29.83;97367.41;5015063;28;20017;-80
2022/07/01 09:20:48;;;;;;;16.60;5.18;;;;;;;42.01;27.95;97374.44;4997859;28;20108;-78
2022/07/01 09:23:22;;;;;;;12.95;4.80;;;;;;;42.31;26.90;97361.13;5013364;28;20037;-76
2022/07/01 09:25:50;;;;;;;8.07;3.92;;;;;;;42.00;27.19;97360.66;5013551;28;20033;-78
2022/07/01 09:28:20;;;;;;;12.25;4.68;;;;;;;40.38;29.15;97369.69;5015690;28;20142;-79
2022/07/01 09:30:59;;;;;;;11.38;4.90;;;;;;;40.46;30.53;97372.72;5014173;28;20026;-77
2022/07/01 09:33:29;;;;;;;9.45;4.22;;;;;;;40.54;29.14;97366.53;5014366;28;20045;-78
2022/07/01 09:35:55;;;;;;;9.05;5.25;;;;;;;40.70;28.33;97364.47;5030265;28;20025;-77
2022/07/01 09:38:24;;;;;;;5.88;3.67;;;;;;;42.34;23.00;97335.19;5030257;28;20396;-79
2022/07/01 09:41:03;;;;;;;7.35;3.88;;;;;;;43.30;23.26;97348.56;5030749;28;20021;-78
2022/07/01 09:43:31;;;;;;;5.63;3.80;;;;;;;43.06;23.15;97337.47;5003612;28;20357;-77
2022/07/01 09:46:06;;;;;;;7.70;3.45;;;;;;;41.13;25.04;97331.00;5031872;28;20021;-77
2022/07/01 09:48:32;;;;;;;5.50;3.00;;;;;;;40.79;23.98;97331.84;4999110;28;20041;-78
2022/07/01 09:50:58;;;;;;;6.18;3.05;;;;;;;40.40;24.99;97333.75;5031870;28;20026;-79
2022/07/01 09:53:24;;;;;;;6.53;3.45;;;;;;;41.93;25.26;97335.72;5031978;28;20466;-79
2022/07/01 09:55:50;;;;;;;7.53;3.47;;;;;;;42.49;23.21;97335.78;5031828;28;20089;-78
2022/07/01 09:58:15;;;;;;;10.38;3.95;;;;;;;42.95;23.64;97335.91;5015494;28;20029;-77
2022/07/01 10:00:41;;;;;;;4.25;3.72;;;;;;;43.20;24.01;97335.50;5011107;28;20180;-77
2022/07/01 10:03:07;;;;;;;6.10;3.72;;;;;;;42.21;23.44;97319.09;5014958;28;20033;-77
2022/07/01 10:05:44;;;;;;;13.82;9.80;;;;;;;42.01;24.70;97326.63;5031451;28;20040;-78
2022/07/01 10:08:44;;;;;;;7.35;4.28;;;;;;;44.10;23.68;97329.22;5027618;28;20083;-78
2022/07/01 10:11:14;;;;;;;6.22;5.05;;;;;;;42.27;26.93;97331.94;5032602;28;20454;-78
2022/07/01 10:13:41;;;;;;;10.65;4.00;;;;;;;42.07;27.00;97331.03;5017033;28;20555;-77
2022/07/01 10:16:08;;;;;;;7.18;4.05;;;;;;;40.57;28.51;97329.47;5012330;28;20508;-78
2022/07/01 10:18:34;;;;;;;7.35;4.20;;;;;;;40.32;29.03;97334.41;5011614;28;20065;-78
2022/07/01 10:21:00;;;;;;;8.35;4.03;;;;;;;39.78;27.76;97317.56;5011413;28;20065;-78
2022/07/01 10:23:45;;;;;;;13.18;4.07;;;;;;;41.91;26.48;97320.28;5033078;28;20029;-77
2022/07/01 10:26:12;;;;;;;6.00;3.90;;;;;;;43.16;25.64;97317.53;5039302;28;20026;-79
2022/07/01 10:28:45;;;;;;;20.40;4.55;;;;;;;44.16;24.43;97321.50;5039118;28;20022;-77
2022/07/01 10:31:16;;;;;;;7.40;4.13;;;;;;;45.49;22.86;97312.28;5011294;28;20052;-77
2022/07/01 10:33:48;;;;;;;9.05;4.30;;;;;;;43.66;24.69;97315.75;5034475;28;20032;-79
2022/07/01 10:36:34;;;;;;;7.85;4.05;;;;;;;44.46;24.69;97319.97;5036603;28;20029;-79
2022/07/01 10:39:03;;;;;;;13.35;5.68;;;;;;;42.64;25.98;97313.06;5000530;28;20481;-78
2022/07/01 10:41:31;;;;;;;17.10;5.82;;;;;;;43.71;24.91;97317.63;5010766;28;20029;-78
2022/07/01 10:43:58;;;;;;;6.35;4.00;;;;;;;42.01;26.42;97304.13;5011759;28;20137;-79
2022/07/01 10:46:46;;;;;;;13.20;5.97;;;;;;;42.65;25.97;97319.53;5014368;28;20033;-78
2022/07/01 10:49:13;;;;;;;8.07;5.05;;;;;;;43.34;25.21;97306.53;5030828;28;20397;-78
2022/07/01 10:51:58;;;;;;;7.25;4.55;;;;;;;41.54;26.89;97304.16;4997979;28;20128;-78
2022/07/01 10:54:35;;;;;;;7.63;3.80;;;;;;;42.46;25.62;97315.88;5010913;28;20481;-79
2022/07/01 10:57:19;;;;;;;9.18;4.32;;;;;;;42.40;26.15;97303.84;5029461;28;20029;-78
2022/07/01 10:59:59;;;;;;;5.38;3.83;;;;;;;42.10;26.69;97302.31;5013681;28;20033;-77
2022/07/01 11:02:27;;;;;;;6.82;4.97;;;;;;;41.44;26.94;97293.84;5013955;28;20390;-77
2022/07/01 11:04:54;;;;;;;6.53;3.70;;;;;;;40.75;27.63;97291.44;5030519;28;20032;-77
2022/07/01 11:07:20;;;;;;;6.07;3.88;;;;;;;41.34;27.25;97293.13;5013787;28;20473;-77
2022/07/01 11:09:46;;;;;;;12.13;3.90;;;;;;;40.69;28.84;97292.63;4997403;28;20029;-76
2022/07/01 11:12:15;;;;;;;6.50;4.40;;;;;;;40.72;27.95;97296.81;5012671;28;20056;-77
2022/07/01 11:14:41;;;;;;;7.78;4.20;;;;;;;40.04;30.09;97303.13;5030135;28;20022;-77
2022/07/01 11:17:08;;;;;;;8.40;4.75;;;;;;;42.32;28.14;97298.09;5000786;28;20051;-77
2022/07/01 11:19:33;;;;;;;10.20;4.32;;;;;;;41.32;28.70;97298.19;5020117;28;20520;-78
2022/07/01 11:21:59;;;;;;;4.95;4.10;;;;;;;43.01;26.65;97295.28;5026729;28;20061;-77
2022/07/01 11:24:25;;;;;;;5.93;3.88;;;;;;;42.30;26.37;97289.13;5030105;28;20029;-77
2022/07/01 11:26:56;;;;;;;8.68;4.13;;;;;;;41.69;27.22;97289.91;5028020;28;20041;-78
2022/07/01 11:29:26;;;;;;;8.60;4.25;;;;;;;43.77;25.29;97279.75;5027199;28;20409;-76
2022/07/01 11:31:52;;;;;;;10.83;4.37;;;;;;;42.48;28.30;97300.38;5033418;28;20050;-76
2022/07/01 11:34:18;;;;;;;6.07;4.45;;;;;;;42.57;27.26;97290.13;5010023;28;20029;-76
2022/07/01 11:39:34;;;;;;;9.23;4.22;;;;;;;42.30;27.46;97278.69;5016549;28;20048;-77
2022/07/01 11:42:03;;;;;;;9.13;3.92;;;;;;;43.04;27.80;97283.41;5035559;28;20409;-77